sensor_id;sensor_type;location;lat;lon;timestamp;pressure;altitude;pressure_sealevel;temperature;humidity
47220;BME280;32961;51.936;4.788;2023-04-01T00:02:17;99037.00;;;9.54;100.00
47220;BME280;32961;51.936;4.788;2023-04-01T00:04:45;99037.81;;;9.55;100.00
47220;BME280;32961;51.936;4.788;2023-04-01T00:07:13;99029.03;;;9.53;100.00
47220;BME280;32961;51.936;4.788;2023-04-01T00:09:41;99038.69;;;9.55;100.00
47220;BME280;32961;51.936;4.788;2023-04-01T00:12:09;99043.63;;;9.52;100.00
47220;BME280;32961;51.936;4.788;2023-04-01T00:14:37;99040.25;;;9.50;100.00
47220;BME280;32961;51.936;4.788;2023-04-01T00:17:07;99042.56;;;9.53;100.00
47220;BME280;32961;51.936;4.788;2023-04-01T00:19:35;99047.16;;;9.52;100.00
47220;BME280;32961;51.936;4.788;2023-04-01T00:22:03;99057.53;;;9.48;100.00
47220;BME280;32961;51.936;4.788;2023-04-01T00:24:31;99060.97;;;9.42;100.00
47220;BME280;32961;51.936;4.788;2023-04-01T00:26:59;99057.09;;;9.37;100.00
47220;BME280;32961;51.936;4.788;2023-04-01T00:29:27;99061.00;;;9.34;100.00
47220;BME280;32961;51.936;4.788;2023-04-01T00:31:57;99058.69;;;9.31;100.00
47220;BME280;32961;51.936;4.788;2023-04-01T00:34:26;99064.28;;;9.29;100.00
47220;BME280;32961;51.936;4.788;2023-04-01T00:36:54;99061.59;;;9.29;100.00
47220;BME280;32961;51.936;4.788;2023-04-01T00:39:22;99066.53;;;9.26;100.00
47220;BME280;32961;51.936;4.788;2023-04-01T00:41:49;99066.53;;;9.26;100.00
47220;BME280;32961;51.936;4.788;2023-04-01T00:44:20;99072.44;;;9.29;100.00
47220;BME280;32961;51.936;4.788;2023-04-01T00:46:48;99066.53;;;9.26;100.00
47220;BME280;32961;51.936;4.788;2023-04-01T00:49:19;99063.81;;;9.26;100.00
47220;BME280;32961;51.936;4.788;2023-04-01T00:51:51;99071.25;;;9.24;100.00
47220;BME280;32961;51.936;4.788;2023-04-01T00:54:21;99073.59;;;9.27;100.00
47220;BME280;32961;51.936;4.788;2023-04-01T00:56:52;99078.19;;;9.26;100.00
47220;BME280;32961;51.936;4.788;2023-04-01T00:59:24;99080.91;;;9.26;100.00
47220;BME280;32961;51.936;4.788;2023-04-01T01:01:53;99077.50;;;9.24;100.00
47220;BME280;32961;51.936;4.788;2023-04-01T01:04:25;99080.22;;;9.24;100.00
47220;BME280;32961;51.936;4.788;2023-04-01T01:07:02;99080.22;;;9.24;100.00
47220;BME280;32961;51.936;4.788;2023-04-01T01:09:41;99079.41;;;9.24;100.00
47220;BME280;32961;51.936;4.788;2023-04-01T01:12:13;99076.00;;;9.22;100.00
47220;BME280;32961;51.936;4.788;2023-04-01T01:14:56;99075.91;;;9.15;100.00
47220;BME280;32961;51.936;4.788;2023-04-01T01:17:35;99080.09;;;9.18;100.00
47220;BME280;32961;51.936;4.788;2023-04-01T01:20:35;99087.88;;;9.21;100.00
47220;BME280;32961;51.936;4.788;2023-04-01T01:23:28;99089.38;;;9.23;100.00
47220;BME280;32961;51.936;4.788;2023-04-01T01:26:13;99085.31;;;9.27;100.00
47220;BME280;32961;51.936;4.788;2023-04-01T01:28:48;99091.63;;;9.20;100.00
47220;BME280;32961;51.936;4.788;2023-04-01T01:31:25;99085.88;;;9.14;100.00
47220;BME280;32961;51.936;4.788;2023-04-01T01:34:05;99098.50;;;8.99;100.00
47220;BME280;32961;51.936;4.788;2023-04-01T01:36:40;99095.81;;;8.91;100.00
47220;BME280;32961;51.936;4.788;2023-04-01T01:39:12;99094.16;;;8.81;100.00
47220;BME280;32961;51.936;4.788;2023-04-01T01:41:42;99108.25;;;8.77;100.00
47220;BME280;32961;51.936;4.788;2023-04-01T01:44:15;99104.69;;;8.76;100.00
47220;BME280;32961;51.936;4.788;2023-04-01T01:46:44;99101.97;;;8.76;100.00
47220;BME280;32961;51.936;4.788;2023-04-01T01:49:14;99113.31;;;8.72;100.00
47220;BME280;32961;51.936;4.788;2023-04-01T01:51:43;99110.66;;;8.63;100.00
47220;BME280;32961;51.936;4.788;2023-04-01T01:54:12;99111.31;;;8.65;100.00
47220;BME280;32961;51.936;4.788;2023-04-01T01:56:41;99108.31;;;8.60;100.00
47220;BME280;32961;51.936;4.788;2023-04-01T01:59:11;99105.78;;;8.59;100.00
47220;BME280;32961;51.936;4.788;2023-04-01T02:01:42;99113.72;;;8.60;100.00
47220;BME280;32961;51.936;4.788;2023-04-01T02:04:13;99114.91;;;8.66;100.00
47220;BME280;32961;51.936;4.788;2023-04-01T02:06:47;99119.28;;;8.67;100.00
47220;BME280;32961;51.936;4.788;2023-04-01T02:09:19;99121.50;;;8.63;100.00
47220;BME280;32961;51.936;4.788;2023-04-01T02:11:49;99117.78;;;8.64;100.00
47220;BME280;32961;51.936;4.788;2023-04-01T02:14:20;99126.38;;;8.68;100.00
47220;BME280;32961;51.936;4.788;2023-04-01T02:16:51;99130.13;;;8.59;100.00
47220;BME280;32961;51.936;4.788;2023-04-01T02:19:26;99135.06;;;8.55;100.00
47220;BME280;32961;51.936;4.788;2023-04-01T02:21:57;99125.22;;;8.62;100.00
47220;BME280;32961;51.936;4.788;2023-04-01T02:24:28;99131.16;;;8.49;100.00
47220;BME280;32961;51.936;4.788;2023-04-01T02:26:57;99132.16;;;8.57;100.00
47220;BME280;32961;51.936;4.788;2023-04-01T02:29:25;99133.88;;;8.58;100.00
47220;BME280;32961;51.936;4.788;2023-04-01T02:31:54;99147.25;;;8.51;100.00
47220;BME280;32961;51.936;4.788;2023-04-01T02:34:23;99129.31;;;8.50;100.00
47220;BME280;32961;51.936;4.788;2023-04-01T02:36:52;99140.97;;;8.50;100.00
47220;BME280;32961;51.936;4.788;2023-04-01T02:39:22;99144.69;;;8.58;100.00
47220;BME280;32961;51.936;4.788;2023-04-01T02:41:52;99147.59;;;8.48;100.00
47220;BME280;32961;51.936;4.788;2023-04-01T02:44:20;99152.81;;;8.49;100.00
47220;BME280;32961;51.936;4.788;2023-04-01T02:46:48;99149.75;;;8.44;100.00
47220;BME280;32961;51.936;4.788;2023-04-01T02:49:16;99152.16;;;8.47;100.00
47220;BME280;32961;51.936;4.788;2023-04-01T02:51:43;99153.47;;;8.43;100.00
47220;BME280;32961;51.936;4.788;2023-04-01T02:54:13;99153.66;;;8.42;100.00
47220;BME280;32961;51.936;4.788;2023-04-01T02:56:42;99162.78;;;8.41;100.00
47220;BME280;32961;51.936;4.788;2023-04-01T02:59:10;99167.69;;;8.37;100.00
47220;BME280;32961;51.936;4.788;2023-04-01T03:01:40;99159.75;;;8.44;100.00
47220;BME280;32961;51.936;4.788;2023-04-01T03:04:08;99171.75;;;8.58;100.00
47220;BME280;32961;51.936;4.788;2023-04-01T03:06:36;99171.25;;;8.54;100.00
47220;BME280;32961;51.936;4.788;2023-04-01T03:09:04;99176.50;;;8.56;100.00
47220;BME280;32961;51.936;4.788;2023-04-01T03:11:32;99183.28;;;8.51;100.00
47220;BME280;32961;51.936;4.788;2023-04-01T03:14:01;99184.81;;;8.38;100.00
47220;BME280;32961;51.936;4.788;2023-04-01T03:16:29;99185.44;;;8.40;100.00
47220;BME280;32961;51.936;4.788;2023-04-01T03:18:56;99189.88;;;8.49;100.00
47220;BME280;32961;51.936;4.788;2023-04-01T03:21:26;99191.59;;;8.50;100.00
47220;BME280;32961;51.936;4.788;2023-04-01T03:23:53;99200.72;;;8.57;100.00
47220;BME280;32961;51.936;4.788;2023-04-01T03:26:21;99198.84;;;8.58;100.00
47220;BME280;32961;51.936;4.788;2023-04-01T03:28:49;99200.22;;;8.54;100.00
47220;BME280;32961;51.936;4.788;2023-04-01T03:31:18;99211.19;;;8.52;100.00
47220;BME280;32961;51.936;4.788;2023-04-01T03:33:49;99211.72;;;8.47;100.00
47220;BME280;32961;51.936;4.788;2023-04-01T03:36:19;99213.22;;;8.50;100.00
47220;BME280;32961;51.936;4.788;2023-04-01T03:38:47;99215.91;;;8.58;100.00
47220;BME280;32961;51.936;4.788;2023-04-01T03:41:16;99225.41;;;8.54;100.00
47220;BME280;32961;51.936;4.788;2023-04-01T03:43:45;99224.91;;;8.50;100.00
47220;BME280;32961;51.936;4.788;2023-04-01T03:46:18;99229.63;;;8.57;100.00
47220;BME280;32961;51.936;4.788;2023-04-01T03:48:47;99230.63;;;8.56;100.00
47220;BME280;32961;51.936;4.788;2023-04-01T03:51:14;99231.50;;;8.64;100.00
47220;BME280;32961;51.936;4.788;2023-04-01T03:53:42;99233.66;;;8.69;100.00
47220;BME280;32961;51.936;4.788;2023-04-01T03:56:10;99233.66;;;8.69;100.00
47220;BME280;32961;51.936;4.788;2023-04-01T03:58:38;99238.44;;;8.67;100.00
47220;BME280;32961;51.936;4.788;2023-04-01T04:01:14;99252.63;;;8.69;100.00
47220;BME280;32961;51.936;4.788;2023-04-01T04:03:43;99258.41;;;8.74;100.00
47220;BME280;32961;51.936;4.788;2023-04-01T04:06:13;99259.41;;;8.73;100.00
47220;BME280;32961;51.936;4.788;2023-04-01T04:08:41;99263.81;;;8.74;100.00
47220;BME280;32961;51.936;4.788;2023-04-01T04:11:09;99266.16;;;8.77;100.00
47220;BME280;32961;51.936;4.788;2023-04-01T04:13:37;99269.88;;;8.76;100.00
47220;BME280;32961;51.936;4.788;2023-04-01T04:16:05;99277.13;;;8.84;100.00
47220;BME280;32961;51.936;4.788;2023-04-01T04:18:33;99281.53;;;8.85;100.00
47220;BME280;32961;51.936;4.788;2023-04-01T04:21:03;99284.94;;;8.87;100.00
47220;BME280;32961;51.936;4.788;2023-04-01T04:23:31;99295.94;;;8.86;100.00
47220;BME280;32961;51.936;4.788;2023-04-01T04:26:02;99292.72;;;8.82;100.00
47220;BME280;32961;51.936;4.788;2023-04-01T04:28:30;99296.28;;;8.82;100.00
47220;BME280;32961;51.936;4.788;2023-04-01T04:30:58;99304.06;;;8.77;100.00
47220;BME280;32961;51.936;4.788;2023-04-01T04:33:27;99304.75;;;8.79;100.00
47220;BME280;32961;51.936;4.788;2023-04-01T04:35:56;99300.69;;;8.83;100.00
47220;BME280;32961;51.936;4.788;2023-04-01T04:38:26;99314.56;;;8.80;100.00
47220;BME280;32961;51.936;4.788;2023-04-01T04:40:54;99304.91;;;8.86;100.00
47220;BME280;32961;51.936;4.788;2023-04-01T04:43:22;99323.53;;;8.81;100.00
47220;BME280;32961;51.936;4.788;2023-04-01T04:45:50;99327.06;;;8.81;100.00
47220;BME280;32961;51.936;4.788;2023-04-01T04:48:18;99324.03;;;8.85;100.00
47220;BME280;32961;51.936;4.788;2023-04-01T04:50:47;99321.66;;;8.81;100.00
47220;BME280;32961;51.936;4.788;2023-04-01T04:53:16;99328.44;;;8.86;100.00
47220;BME280;32961;51.936;4.788;2023-04-01T04:55:46;99334.88;;;8.85;100.00
47220;BME280;32961;51.936;4.788;2023-04-01T04:58:14;99343.34;;;8.90;100.00
47220;BME280;32961;51.936;4.788;2023-04-01T05:00:43;99343.19;;;8.83;100.00
47220;BME280;32961;51.936;4.788;2023-04-01T05:03:11;99345.53;;;8.86;100.00
47220;BME280;32961;51.936;4.788;2023-04-01T05:05:39;99357.22;;;8.87;100.00
47220;BME280;32961;51.936;4.788;2023-04-01T05:08:07;99352.13;;;8.83;100.00
47220;BME280;32961;51.936;4.788;2023-04-01T05:10:35;99363.66;;;8.86;100.00
47220;BME280;32961;51.936;4.788;2023-04-01T05:13:04;99369.22;;;8.84;100.00
47220;BME280;32961;51.936;4.788;2023-04-01T05:15:32;99371.28;;;8.82;100.00
47220;BME280;32961;51.936;4.788;2023-04-01T05:18:00;99387.03;;;8.87;100.00
47220;BME280;32961;51.936;4.788;2023-04-01T05:20:28;99393.94;;;8.81;100.00
47220;BME280;32961;51.936;4.788;2023-04-01T05:22:56;99381.75;;;8.85;100.00
47220;BME280;32961;51.936;4.788;2023-04-01T05:25:25;99383.94;;;8.81;100.00
47220;BME280;32961;51.936;4.788;2023-04-01T05:27:53;99391.25;;;8.81;100.00
47220;BME280;32961;51.936;4.788;2023-04-01T05:30:22;99400.38;;;8.88;100.00
47220;BME280;32961;51.936;4.788;2023-04-01T05:32:50;99405.63;;;8.81;100.00
47220;BME280;32961;51.936;4.788;2023-04-01T05:35:18;99403.25;;;8.78;100.00
47220;BME280;32961;51.936;4.788;2023-04-01T05:37:45;99412.06;;;8.80;100.00
47220;BME280;32961;51.936;4.788;2023-04-01T05:40:13;99406.97;;;8.69;100.00
47220;BME280;32961;51.936;4.788;2023-04-01T05:42:41;99420.84;;;8.66;100.00
47220;BME280;32961;51.936;4.788;2023-04-01T05:45:10;99424.22;;;8.68;100.00
47220;BME280;32961;51.936;4.788;2023-04-01T05:47:39;99421.53;;;8.76;100.00
47220;BME280;32961;51.936;4.788;2023-04-01T05:50:07;99422.53;;;8.75;100.00
47220;BME280;32961;51.936;4.788;2023-04-01T05:52:35;99426.28;;;8.74;100.00
47220;BME280;32961;51.936;4.788;2023-04-01T05:55:03;99441.88;;;8.80;100.00
47220;BME280;32961;51.936;4.788;2023-04-01T05:57:32;99435.25;;;8.75;100.00
47220;BME280;32961;51.936;4.788;2023-04-01T05:59:59;99444.56;;;8.72;100.00
47220;BME280;32961;51.936;4.788;2023-04-01T06:02:27;99449.97;;;8.72;100.00
47220;BME280;32961;51.936;4.788;2023-04-01T06:05:02;99452.00;;;8.70;100.00
47220;BME280;32961;51.936;4.788;2023-04-01T06:07:31;99453.69;;;8.71;100.00
47220;BME280;32961;51.936;4.788;2023-04-01T06:09:59;99467.91;;;8.73;100.00
47220;BME280;32961;51.936;4.788;2023-04-01T06:12:40;99469.63;;;8.74;100.00
47220;BME280;32961;51.936;4.788;2023-04-01T06:15:21;99480.47;;;8.74;100.00
47220;BME280;32961;51.936;4.788;2023-04-01T06:18:31;99480.09;;;8.61;100.00
47220;BME280;32961;51.936;4.788;2023-04-01T06:21:14;99479.38;;;8.59;100.00
47220;BME280;32961;51.936;4.788;2023-04-01T06:23:50;99492.09;;;8.66;100.00
47220;BME280;32961;51.936;4.788;2023-04-01T06:26:30;99500.72;;;8.70;100.00
47220;BME280;32961;51.936;4.788;2023-04-01T06:29:23;99501.25;;;8.74;100.00
47220;BME280;32961;51.936;4.788;2023-04-01T06:32:16;99507.53;;;8.74;100.00
47220;BME280;32961;51.936;4.788;2023-04-01T06:35:02;99511.09;;;8.83;100.00
47220;BME280;32961;51.936;4.788;2023-04-01T06:38:00;99517.53;;;8.82;100.00
47220;BME280;32961;51.936;4.788;2023-04-01T06:40:50;99515.81;;;8.73;100.00
47220;BME280;32961;51.936;4.788;2023-04-01T06:43:25;99521.41;;;8.71;100.00
47220;BME280;32961;51.936;4.788;2023-04-01T06:45:58;99521.03;;;8.66;100.00
47220;BME280;32961;51.936;4.788;2023-04-01T06:48:41;99533.06;;;8.63;100.00
47220;BME280;32961;51.936;4.788;2023-04-01T06:51:21;99531.00;;;8.65;100.00
47220;BME280;32961;51.936;4.788;2023-04-01T06:53:55;99534.94;;;8.71;100.00
47220;BME280;32961;51.936;4.788;2023-04-01T06:56:28;99539.50;;;8.71;100.00
47220;BME280;32961;51.936;4.788;2023-04-01T06:58:58;99537.59;;;8.63;100.00
47220;BME280;32961;51.936;4.788;2023-04-01T07:01:30;99538.47;;;8.63;100.00
47220;BME280;32961;51.936;4.788;2023-04-01T07:04:05;99545.72;;;8.63;100.00
47220;BME280;32961;51.936;4.788;2023-04-01T07:06:35;99559.03;;;8.48;100.00
47220;BME280;32961;51.936;4.788;2023-04-01T07:09:10;99555.00;;;8.52;100.00
47220;BME280;32961;51.936;4.788;2023-04-01T07:11:40;99559.25;;;8.63;100.00
47220;BME280;32961;51.936;4.788;2023-04-01T07:14:14;99561.44;;;8.59;100.00
47220;BME280;32961;51.936;4.788;2023-04-01T07:16:49;99561.09;;;8.54;100.00
47220;BME280;32961;51.936;4.788;2023-04-01T07:19:22;99572.28;;;8.59;100.00
47220;BME280;32961;51.936;4.788;2023-04-01T07:21:56;99573.50;;;8.65;100.00
47220;BME280;32961;51.936;4.788;2023-04-01T07:24:32;99575.34;;;8.56;100.00
47220;BME280;32961;51.936;4.788;2023-04-01T07:27:00;99584.50;;;8.63;100.00
47220;BME280;32961;51.936;4.788;2023-04-01T07:29:28;99576.69;;;8.60;100.00
47220;BME280;32961;51.936;4.788;2023-04-01T07:32:14;99590.41;;;8.59;100.00
47220;BME280;32961;51.936;4.788;2023-04-01T07:34:55;99597.03;;;8.64;100.00
47220;BME280;32961;51.936;4.788;2023-04-01T07:37:28;99597.19;;;8.63;100.00
47220;BME280;32961;51.936;4.788;2023-04-01T07:40:08;99602.47;;;8.73;100.00
47220;BME280;32961;51.936;4.788;2023-04-01T07:42:49;99608.56;;;8.75;100.00
47220;BME280;32961;51.936;4.788;2023-04-01T07:45:24;99600.25;;;8.68;100.00
47220;BME280;32961;51.936;4.788;2023-04-01T07:48:12;99608.38;;;8.68;100.00
47220;BME280;32961;51.936;4.788;2023-04-01T07:50:47;99608.34;;;8.60;100.00
47220;BME280;32961;51.936;4.788;2023-04-01T07:53:24;99610.72;;;8.63;100.00
47220;BME280;32961;51.936;4.788;2023-04-01T07:56:01;99603.59;;;8.62;100.00
47220;BME280;32961;51.936;4.788;2023-04-01T07:58:37;99613.41;;;8.63;100.00
47220;BME280;32961;51.936;4.788;2023-04-01T08:01:13;99614.16;;;8.73;100.00
47220;BME280;32961;51.936;4.788;2023-04-01T08:03:55;99625.19;;;8.80;100.00
47220;BME280;32961;51.936;4.788;2023-04-01T08:06:28;99626.03;;;8.80;100.00
47220;BME280;32961;51.936;4.788;2023-04-01T08:09:04;99633.47;;;8.78;100.00
47220;BME280;32961;51.936;4.788;2023-04-01T08:11:47;99643.13;;;8.81;100.00
47220;BME280;32961;51.936;4.788;2023-04-01T08:14:30;99646.31;;;8.76;100.00
47220;BME280;32961;51.936;4.788;2023-04-01T08:17:07;99655.97;;;8.71;100.00
47220;BME280;32961;51.936;4.788;2023-04-01T08:19:48;99656.09;;;8.69;100.00
47220;BME280;32961;51.936;4.788;2023-04-01T08:22:23;99665.75;;;8.72;100.00
47220;BME280;32961;51.936;4.788;2023-04-01T08:24:55;99669.16;;;8.74;100.00
47220;BME280;32961;51.936;4.788;2023-04-01T08:27:31;99671.38;;;8.78;100.00
47220;BME280;32961;51.936;4.788;2023-04-01T08:30:04;99666.28;;;8.75;100.00
47220;BME280;32961;51.936;4.788;2023-04-01T08:32:37;99677.81;;;8.77;100.00
47220;BME280;32961;51.936;4.788;2023-04-01T08:35:14;99679.19;;;8.81;100.00
47220;BME280;32961;51.936;4.788;2023-04-01T08:37:43;99677.16;;;8.83;100.00
47220;BME280;32961;51.936;4.788;2023-04-01T08:43:20;99693.25;;;8.85;100.00
47220;BME280;32961;51.936;4.788;2023-04-01T08:46:06;99695.31;;;8.91;100.00
47220;BME280;32961;51.936;4.788;2023-04-01T08:48:49;99692.25;;;8.86;100.00
47220;BME280;32961;51.936;4.788;2023-04-01T08:54:46;99708.97;;;8.81;100.00
47220;BME280;32961;51.936;4.788;2023-04-01T08:57:31;99710.69;;;8.82;100.00
47220;BME280;32961;51.936;4.788;2023-04-01T09:00:15;99712.59;;;8.90;100.00
47220;BME280;32961;51.936;4.788;2023-04-01T09:09:13;99722.31;;;9.09;100.00
47220;BME280;32961;51.936;4.788;2023-04-01T09:12:11;99731.16;;;9.11;100.00
47220;BME280;32961;51.936;4.788;2023-04-01T09:15:06;99723.03;;;9.11;100.00
47220;BME280;32961;51.936;4.788;2023-04-01T09:17:54;99735.22;;;9.15;100.00
47220;BME280;32961;51.936;4.788;2023-04-01T09:20:46;99734.25;;;9.25;100.00
47220;BME280;32961;51.936;4.788;2023-04-01T09:23:33;99730.50;;;9.18;100.00
47220;BME280;32961;51.936;4.788;2023-04-01T09:26:16;99742.41;;;9.25;100.00
47220;BME280;32961;51.936;4.788;2023-04-01T09:28:58;99744.09;;;9.26;100.00
47220;BME280;32961;51.936;4.788;2023-04-01T09:31:43;99746.25;;;9.14;100.00
47220;BME280;32961;51.936;4.788;2023-04-01T09:34:25;99740.16;;;9.20;100.00
47220;BME280;32961;51.936;4.788;2023-04-01T09:37:17;99756.25;;;9.22;100.00
47220;BME280;32961;51.936;4.788;2023-04-01T09:39:54;99750.47;;;9.17;100.00
47220;BME280;32961;51.936;4.788;2023-04-01T09:42:41;99754.41;;;9.22;100.00
47220;BME280;32961;51.936;4.788;2023-04-01T09:45:21;99756.31;;;9.30;100.00
47220;BME280;32961;51.936;4.788;2023-04-01T09:48:01;99761.56;;;9.31;100.00
47220;BME280;32961;51.936;4.788;2023-04-01T09:50:36;99763.81;;;9.44;100.00
47220;BME280;32961;51.936;4.788;2023-04-01T09:53:18;99765.13;;;9.32;100.00
47220;BME280;32961;51.936;4.788;2023-04-01T09:56:19;99771.84;;;9.20;100.00
47220;BME280;32961;51.936;4.788;2023-04-01T09:59:07;99768.97;;;9.21;100.00
47220;BME280;32961;51.936;4.788;2023-04-01T10:01:49;99778.28;;;9.27;100.00
47220;BME280;32961;51.936;4.788;2023-04-01T10:10:58;99784.09;;;9.32;100.00
47220;BME280;32961;51.936;4.788;2023-04-01T10:13:51;99783.75;;;9.35;100.00
47220;BME280;32961;51.936;4.788;2023-04-01T10:19:59;99783.19;;;9.23;100.00
47220;BME280;32961;51.936;4.788;2023-04-01T10:22:59;99794.94;;;9.32;100.00
47220;BME280;32961;51.936;4.788;2023-04-01T10:28:43;99802.56;;;9.37;100.00
47220;BME280;32961;51.936;4.788;2023-04-01T10:31:47;99805.97;;;9.39;100.00
47220;BME280;32961;51.936;4.788;2023-04-01T10:34:44;99800.59;;;9.47;100.00
47220;BME280;32961;51.936;4.788;2023-04-01T10:40:42;99810.97;;;9.60;100.00
47220;BME280;32961;51.936;4.788;2023-04-01T10:43:35;99807.91;;;9.55;100.00
47220;BME280;32961;51.936;4.788;2023-04-01T10:49:41;99816.22;;;9.53;100.00
47220;BME280;32961;51.936;4.788;2023-04-01T10:55:37;99818.03;;;9.44;100.00
47220;BME280;32961;51.936;4.788;2023-04-01T10:58:41;99826.50;;;9.41;100.00
47220;BME280;32961;51.936;4.788;2023-04-01T11:08:14;99828.53;;;9.39;100.00
47220;BME280;32961;51.936;4.788;2023-04-01T11:11:16;99826.00;;;9.46;100.00
47220;BME280;32961;51.936;4.788;2023-04-01T11:14:16;99834.44;;;9.35;100.00
47220;BME280;32961;51.936;4.788;2023-04-01T11:23:02;99840.09;;;9.50;100.00
47220;BME280;32961;51.936;4.788;2023-04-01T11:25:46;99837.22;;;9.51;100.00
47220;BME280;32961;51.936;4.788;2023-04-01T11:31:39;99856.69;;;9.46;100.00
47220;BME280;32961;51.936;4.788;2023-04-01T11:34:31;99857.06;;;9.52;100.00
47220;BME280;32961;51.936;4.788;2023-04-01T11:37:10;99853.78;;;9.40;100.00
47220;BME280;32961;51.936;4.788;2023-04-01T11:39:59;99857.72;;;9.45;100.00
47220;BME280;32961;51.936;4.788;2023-04-01T11:42:37;99856.72;;;9.55;100.00
47220;BME280;32961;51.936;4.788;2023-04-01T11:45:16;99864.16;;;9.53;100.00
47220;BME280;32961;51.936;4.788;2023-04-01T11:48:17;99861.84;;;9.58;100.00
47220;BME280;32961;51.936;4.788;2023-04-01T11:51:11;99868.63;;;9.62;100.00
47220;BME280;32961;51.936;4.788;2023-04-01T11:53:47;99877.81;;;9.69;100.00
47220;BME280;32961;51.936;4.788;2023-04-01T11:56:34;99885.78;;;9.71;100.00
47220;BME280;32961;51.936;4.788;2023-04-01T12:01:59;99885.97;;;9.69;100.00
47220;BME280;32961;51.936;4.788;2023-04-01T12:04:50;99893.44;;;9.75;100.00
47220;BME280;32961;51.936;4.788;2023-04-01T12:07:32;99895.06;;;9.60;100.00
47220;BME280;32961;51.936;4.788;2023-04-01T12:10:15;99900.00;;;9.64;100.00
47220;BME280;32961;51.936;4.788;2023-04-01T12:12:50;99897.09;;;9.58;100.00
47220;BME280;32961;51.936;4.788;2023-04-01T12:15:33;99901.41;;;9.69;100.00
47220;BME280;32961;51.936;4.788;2023-04-01T12:18:12;99911.06;;;9.71;100.00
47220;BME280;32961;51.936;4.788;2023-04-01T12:20:49;99907.84;;;9.76;100.00
47220;BME280;32961;51.936;4.788;2023-04-01T12:23:33;99905.31;;;9.74;100.00
47220;BME280;32961;51.936;4.788;2023-04-01T12:26:22;99910.44;;;9.86;100.00
47220;BME280;32961;51.936;4.788;2023-04-01T12:29:09;99915.38;;;9.90;100.00
47220;BME280;32961;51.936;4.788;2023-04-01T12:31:47;99920.69;;;10.00;100.00
47220;BME280;32961;51.936;4.788;2023-04-01T12:34:42;99926.06;;;9.92;100.00
47220;BME280;32961;51.936;4.788;2023-04-01T12:37:22;99933.19;;;9.93;100.00
47220;BME280;32961;51.936;4.788;2023-04-01T12:40:17;99935.78;;;9.94;100.00
47220;BME280;32961;51.936;4.788;2023-04-01T12:45:31;99937.19;;;10.07;100.00
47220;BME280;32961;51.936;4.788;2023-04-01T12:48:10;99938.88;;;10.16;100.00
47220;BME280;32961;51.936;4.788;2023-04-01T12:54:30;99945.72;;;10.28;100.00
47220;BME280;32961;51.936;4.788;2023-04-01T12:57:18;99945.41;;;10.32;100.00
47220;BME280;32961;51.936;4.788;2023-04-01T13:00:08;99949.97;;;10.31;100.00
47220;BME280;32961;51.936;4.788;2023-04-01T13:02:50;99954.03;;;10.27;100.00
47220;BME280;32961;51.936;4.788;2023-04-01T13:05:39;99958.22;;;10.13;100.00
47220;BME280;32961;51.936;4.788;2023-04-01T13:08:24;99965.59;;;10.29;100.00
47220;BME280;32961;51.936;4.788;2023-04-01T13:11:08;99966.50;;;10.38;100.00
47220;BME280;32961;51.936;4.788;2023-04-01T13:14:03;99965.75;;;10.36;100.00
47220;BME280;32961;51.936;4.788;2023-04-01T13:16:54;99970.69;;;10.32;100.00
47220;BME280;32961;51.936;4.788;2023-04-01T13:19:31;99977.19;;;10.39;100.00
47220;BME280;32961;51.936;4.788;2023-04-01T13:22:07;99988.22;;;10.38;100.00
47220;BME280;32961;51.936;4.788;2023-04-01T13:24:45;99982.53;;;10.31;100.00
47220;BME280;32961;51.936;4.788;2023-04-01T13:27:22;99988.31;;;10.28;100.00
47220;BME280;32961;51.936;4.788;2023-04-01T13:30:03;99991.03;;;10.28;100.00
47220;BME280;32961;51.936;4.788;2023-04-01T13:32:44;99985.25;;;10.23;100.00
47220;BME280;32961;51.936;4.788;2023-04-01T13:35:23;99983.72;;;10.28;100.00
47220;BME280;32961;51.936;4.788;2023-04-01T13:38:06;99994.28;;;10.32;100.00
47220;BME280;32961;51.936;4.788;2023-04-01T13:40:49;99988.84;;;10.32;100.00
47220;BME280;32961;51.936;4.788;2023-04-01T13:43:32;99996.53;;;10.36;100.00
47220;BME280;32961;51.936;4.788;2023-04-01T13:46:24;100001.78;;;10.38;100.00
47220;BME280;32961;51.936;4.788;2023-04-01T13:49:07;99997.91;;;10.40;100.00
47220;BME280;32961;51.936;4.788;2023-04-01T13:55:20;100016.53;;;10.35;100.00
47220;BME280;32961;51.936;4.788;2023-04-01T13:58:10;100013.75;;;10.27;100.00
47220;BME280;32961;51.936;4.788;2023-04-01T14:00:56;100015.75;;;10.17;100.00
47220;BME280;32961;51.936;4.788;2023-04-01T14:03:30;100017.13;;;10.21;100.00
47220;BME280;32961;51.936;4.788;2023-04-01T14:06:11;100025.09;;;10.14;100.00
47220;BME280;32961;51.936;4.788;2023-04-01T14:08:51;100020.38;;;10.24;100.00
47220;BME280;32961;51.936;4.788;2023-04-01T14:11:30;100025.28;;;10.21;100.00
47220;BME280;32961;51.936;4.788;2023-04-01T14:14:06;100034.47;;;10.28;100.00
47220;BME280;32961;51.936;4.788;2023-04-01T14:17:16;100032.78;;;10.27;100.00
47220;BME280;32961;51.936;4.788;2023-04-01T14:20:18;100036.13;;;10.21;100.00
47220;BME280;32961;51.936;4.788;2023-04-01T14:23:02;100036.31;;;10.19;100.00
47220;BME280;32961;51.936;4.788;2023-04-01T14:28:49;100050.53;;;10.21;100.00
47220;BME280;32961;51.936;4.788;2023-04-01T14:31:29;100049.75;;;10.29;100.00
47220;BME280;32961;51.936;4.788;2023-04-01T14:34:09;100055.13;;;10.21;100.00
47220;BME280;32961;51.936;4.788;2023-04-01T14:36:46;100058.69;;;10.21;100.00
47220;BME280;32961;51.936;4.788;2023-04-01T14:39:29;100062.59;;;10.19;100.00
47220;BME280;32961;51.936;4.788;2023-04-01T14:42:18;100068.00;;;10.19;100.00
47220;BME280;32961;51.936;4.788;2023-04-01T14:45:02;100066.47;;;10.16;100.00
47220;BME280;32961;51.936;4.788;2023-04-01T14:47:44;100062.06;;;10.15;100.00
47220;BME280;32961;51.936;4.788;2023-04-01T14:50:18;100066.75;;;10.05;100.00
47220;BME280;32961;51.936;4.788;2023-04-01T14:52:55;100079.16;;;10.07;100.00
47220;BME280;32961;51.936;4.788;2023-04-01T14:55:31;100089.06;;;10.17;100.00